createdAt,value
2022-10-30T00:44:52.663Z,9.56
2022-10-30T00:47:25.019Z,9.60
2022-10-30T00:50:00.279Z,9.61
2022-10-30T00:52:32.617Z,9.51
2022-10-30T00:55:04.617Z,9.52
2022-10-30T00:57:33.171Z,9.29
2022-10-30T01:00:03.698Z,9.53
2022-10-30T01:02:31.541Z,9.46
2022-10-30T01:04:59.719Z,9.42
2022-10-30T01:07:27.747Z,9.25
2022-10-30T01:09:55.407Z,9.40
2022-10-30T01:12:23.027Z,9.25
2022-10-30T01:14:54.087Z,9.37
2022-10-30T01:17:45.283Z,9.36
2022-10-30T01:20:29.804Z,9.31
2022-10-30T01:23:07.733Z,9.30
2022-10-30T01:25:44.133Z,9.25
2022-10-30T01:28:31.755Z,9.22
2022-10-30T01:31:09.893Z,9.18
2022-10-30T01:33:52.563Z,9.20
2022-10-30T01:36:26.228Z,9.16
2022-10-30T01:38:57.597Z,9.14
2022-10-30T01:41:27.579Z,8.53
2022-10-30T01:43:58.874Z,9.12
2022-10-30T01:46:50.846Z,8.70
2022-10-30T01:50:04.614Z,9.19
2022-10-30T01:52:41.351Z,8.95
2022-10-30T01:55:19.776Z,9.21
2022-10-30T01:57:56.687Z,8.88
2022-10-30T02:00:24.893Z,9.13
2022-10-30T02:02:52.953Z,9.09
2022-10-30T02:05:31.156Z,9.14
2022-10-30T02:08:00.678Z,9.13
2022-10-30T02:10:29.328Z,9.10
2022-10-30T02:12:57.805Z,9.06
2022-10-30T02:15:25.764Z,9.04
2022-10-30T02:17:56.808Z,9.01
2022-10-30T02:20:26.897Z,8.33
2022-10-30T02:22:58.963Z,8.97
2022-10-30T02:25:32.069Z,8.85
2022-10-30T02:28:00.099Z,8.90
2022-10-30T02:30:30.595Z,8.92
2022-10-30T02:32:58.535Z,8.66
2022-10-30T02:35:27.912Z,8.77
2022-10-30T02:37:55.746Z,8.65
2022-10-30T02:40:23.749Z,8.84
2022-10-30T02:42:54.783Z,8.78
2022-10-30T02:45:22.646Z,8.81
2022-10-30T02:47:50.950Z,8.22
2022-10-30T02:50:18.702Z,8.76
2022-10-30T02:52:47.810Z,8.80
2022-10-30T02:55:15.559Z,8.84
2022-10-30T02:57:43.411Z,8.76
2022-10-30T03:00:12.704Z,9.08
2022-10-30T03:02:40.941Z,9.13
2022-10-30T03:05:09.195Z,9.05
2022-10-30T03:07:36.836Z,9.02
2022-10-30T03:10:06.627Z,8.95
2022-10-30T03:12:34.430Z,8.90
2022-10-30T03:15:05.881Z,7.89
2022-10-30T03:17:33.687Z,8.70
2022-10-30T03:20:01.487Z,8.64
2022-10-30T03:22:29.883Z,8.88
2022-10-30T03:24:57.621Z,9.01
2022-10-30T03:27:26.696Z,9.14
2022-10-30T03:29:54.395Z,8.39
2022-10-30T03:32:22.222Z,8.93
2022-10-30T03:34:54.484Z,8.92
2022-10-30T03:37:22.134Z,8.76
2022-10-30T03:39:49.763Z,8.71
2022-10-30T03:42:17.514Z,8.82
2022-10-30T03:44:46.579Z,8.46
2022-10-30T03:47:14.271Z,8.23
2022-10-30T03:49:44.621Z,8.68
2022-10-30T03:52:17.204Z,8.71
2022-10-30T03:54:44.893Z,8.65
2022-10-30T03:57:15.775Z,8.59
2022-10-30T03:59:59.691Z,8.51
2022-10-30T04:02:46.070Z,7.97
2022-10-30T04:05:15.042Z,8.43
2022-10-30T04:07:43.093Z,8.31
2022-10-30T04:10:11.409Z,8.55
2022-10-30T04:12:39.382Z,8.67
2022-10-30T04:15:09.752Z,8.52
2022-10-30T04:17:37.449Z,8.25
2022-10-30T04:20:07.318Z,8.35
2022-10-30T04:22:35.014Z,8.38
2022-10-30T04:25:03.210Z,8.33
2022-10-30T04:27:32.284Z,7.74
2022-10-30T04:29:59.935Z,8.15
2022-10-30T04:32:29.641Z,8.24
2022-10-30T04:34:57.312Z,7.84
2022-10-30T04:37:26.013Z,8.21
2022-10-30T04:39:53.642Z,8.07
2022-10-30T04:42:26.363Z,8.26
2022-10-30T04:44:54.655Z,7.96
2022-10-30T04:47:22.787Z,8.23
2022-10-30T04:49:51.873Z,8.21
2022-10-30T04:52:19.679Z,8.02
2022-10-30T04:54:47.366Z,7.55
2022-10-30T04:57:15.164Z,8.15
2022-10-30T04:59:44.131Z,7.25
2022-10-30T05:02:11.998Z,8.04
2022-10-30T05:04:39.862Z,8.18
2022-10-30T05:07:09.695Z,7.42
2022-10-30T05:09:37.361Z,8.33
2022-10-30T05:12:05.152Z,8.27
2022-10-30T05:14:40.348Z,8.22
2022-10-30T05:17:08.042Z,8.21
2022-10-30T05:19:35.727Z,8.28
2022-10-30T05:22:03.497Z,8.06
2022-10-30T05:24:32.670Z,8.15
2022-10-30T05:27:00.406Z,8.09
2022-10-30T05:29:29.276Z,7.41
2022-10-30T05:31:56.964Z,7.87
2022-10-30T05:34:39.278Z,8.00
2022-10-30T05:37:06.982Z,7.21
2022-10-30T05:39:37.139Z,8.02
2022-10-30T05:42:13.647Z,8.03
2022-10-30T05:45:01.289Z,7.84
2022-10-30T05:47:31.072Z,7.95
2022-10-30T05:49:59.204Z,7.76
2022-10-30T05:52:29.159Z,7.97
2022-10-30T05:54:59.388Z,7.92
2022-10-30T05:57:35.703Z,7.90
2022-10-30T06:00:03.405Z,7.87
2022-10-30T06:02:32.105Z,7.88
2022-10-30T06:04:59.878Z,7.91
2022-10-30T06:07:27.545Z,7.90
2022-10-30T06:09:55.252Z,7.92
2022-10-30T06:12:42.654Z,7.95
2022-10-30T06:15:27.231Z,8.01
2022-10-30T06:17:55.548Z,8.01
2022-10-30T06:20:56.328Z,8.04
2022-10-30T06:23:38.683Z,7.72
2022-10-30T06:26:24.632Z,8.12
2022-10-30T06:28:56.388Z,8.15
2022-10-30T06:31:24.201Z,8.07
2022-10-30T06:33:51.898Z,8.24
2022-10-30T06:36:19.738Z,7.66
2022-10-30T06:38:47.545Z,8.20
2022-10-30T06:41:18.372Z,8.38
2022-10-30T06:44:06.240Z,8.46
2022-10-30T06:46:36.864Z,8.47
2022-10-30T06:49:05.320Z,8.43
2022-10-30T06:51:33.289Z,8.62
2022-10-30T06:54:01.702Z,7.88
2022-10-30T06:56:52.057Z,8.77
2022-10-30T06:59:40.235Z,8.89
2022-10-30T07:02:24.339Z,8.88
2022-10-30T07:04:55.957Z,8.98
2022-10-30T07:07:23.640Z,8.76
2022-10-30T07:09:51.633Z,8.92
2022-10-30T07:12:24.891Z,9.08
2022-10-30T07:15:03.919Z,9.20
2022-10-30T07:17:55.771Z,9.20
2022-10-30T07:20:26.088Z,9.27
2022-10-30T07:22:53.803Z,9.38
2022-10-30T07:25:22.037Z,9.44
2022-10-30T07:28:08.175Z,9.51
2022-10-30T07:30:44.734Z,9.63
2022-10-30T07:33:25.355Z,9.47
2022-10-30T07:35:56.444Z,9.71
2022-10-30T07:38:32.520Z,9.88
2022-10-30T07:41:12.301Z,9.96
2022-10-30T07:43:51.576Z,10.00
2022-10-30T07:46:48.151Z,9.97
2022-10-30T07:49:15.788Z,10.01
2022-10-30T07:51:49.692Z,10.21
2022-10-30T07:54:18.323Z,10.19
2022-10-30T07:56:46.428Z,10.30
2022-10-30T07:59:45.874Z,10.52
2022-10-30T08:02:26.678Z,10.56
2022-10-30T08:05:24.231Z,10.67
2022-10-30T08:08:05.148Z,10.75
2022-10-30T08:10:34.303Z,10.73
2022-10-30T08:13:03.200Z,10.99
2022-10-30T08:15:32.811Z,10.47
2022-10-30T08:18:02.017Z,11.13
2022-10-30T08:20:30.372Z,11.22
2022-10-30T08:23:00.135Z,11.35
2022-10-30T08:25:30.062Z,11.48
2022-10-30T08:28:00.624Z,11.46
2022-10-30T08:30:34.309Z,11.58
2022-10-30T08:33:05.775Z,11.84
2022-10-30T08:36:11.739Z,12.04
2022-10-30T08:38:39.505Z,12.01
2022-10-30T08:41:15.245Z,12.25
2022-10-30T08:43:47.096Z,12.36
2022-10-30T08:46:14.902Z,12.29
2022-10-30T08:48:43.918Z,12.60
2022-10-30T08:51:11.605Z,12.74
2022-10-30T08:53:44.758Z,12.74
2022-10-30T08:56:15.293Z,12.82
2022-10-30T08:58:53.329Z,12.94
2022-10-30T09:01:21.419Z,13.01
2022-10-30T09:04:13.655Z,13.09
2022-10-30T09:07:01.609Z,13.02
2022-10-30T09:09:51.465Z,13.37
2022-10-30T09:12:19.363Z,13.53
2022-10-30T09:14:47.853Z,13.12
2022-10-30T09:17:15.520Z,13.84
2022-10-30T09:22:22.923Z,14.10
2022-10-30T09:24:50.955Z,14.22
2022-10-30T09:27:39.069Z,14.44
2022-10-30T09:30:09.600Z,14.58
2022-10-30T09:32:43.086Z,14.62
2022-10-30T09:35:19.785Z,14.85
2022-10-30T09:37:47.454Z,14.93
2022-10-30T09:40:24.913Z,14.93
2022-10-30T09:42:55.420Z,14.95
2022-10-30T09:45:43.452Z,15.13
2022-10-30T09:48:35.977Z,15.29
2022-10-30T09:51:24.054Z,15.35
2022-10-30T09:54:05.506Z,15.59
2022-10-30T09:56:45.717Z,15.59
2022-10-30T09:59:33.707Z,15.78
2022-10-30T10:02:14.132Z,15.70
2022-10-30T10:04:45.688Z,16.07
2022-10-30T10:07:21.769Z,16.20
2022-10-30T10:10:01.163Z,16.24
2022-10-30T10:12:43.285Z,16.57
2022-10-30T10:15:16.195Z,16.67
2022-10-30T10:17:46.669Z,16.95
2022-10-30T10:20:18.614Z,17.16
2022-10-30T10:22:50.503Z,17.22
2022-10-30T10:25:20.830Z,17.32
2022-10-30T10:28:07.242Z,17.41
2022-10-30T10:30:45.285Z,17.56
2022-10-30T10:33:38.543Z,17.68
2022-10-30T10:36:15.736Z,17.70
2022-10-30T10:39:02.334Z,17.77
2022-10-30T10:41:43.284Z,17.92
2022-10-30T10:44:27.502Z,17.96
2022-10-30T10:47:09.336Z,17.97
2022-10-30T10:49:48.984Z,17.98
2022-10-30T10:52:20.002Z,18.18
2022-10-30T10:54:54.312Z,18.25
2022-10-30T10:57:27.845Z,18.37
2022-10-30T10:59:59.625Z,18.26
2022-10-30T11:02:34.205Z,18.29
2022-10-30T11:05:08.046Z,18.36
2022-10-30T11:07:42.699Z,18.43
2022-10-30T11:10:16.412Z,18.40
2022-10-30T11:12:44.583Z,18.50
2022-10-30T11:15:32.360Z,18.49
2022-10-30T11:18:02.591Z,18.48
2022-10-30T11:20:41.906Z,18.48
2022-10-30T11:23:32.548Z,18.50
2022-10-30T11:26:02.866Z,18.44
2022-10-30T11:28:39.970Z,18.30
2022-10-30T11:31:27.576Z,18.34
2022-10-30T11:33:55.492Z,18.31
2022-10-30T11:36:25.481Z,18.17
2022-10-30T11:38:53.674Z,18.37
2022-10-30T11:41:22.720Z,18.43
2022-10-30T11:43:50.656Z,18.34
2022-10-30T11:46:24.337Z,18.18
2022-10-30T11:48:54.848Z,18.07
2022-10-30T11:51:38.224Z,17.94
2022-10-30T11:54:08.066Z,17.67
2022-10-30T11:56:37.541Z,17.63
2022-10-30T11:59:06.546Z,17.54
2022-10-30T12:01:36.906Z,17.47
2022-10-30T12:04:23.073Z,17.59
2022-10-30T12:07:07.612Z,17.59
2022-10-30T12:09:44.150Z,17.55
2022-10-30T12:12:20.973Z,17.58
2022-10-30T12:14:48.761Z,17.53
2022-10-30T12:17:17.768Z,17.38
2022-10-30T12:19:49.091Z,17.51
2022-10-30T12:22:31.007Z,17.60
2022-10-30T12:25:01.244Z,17.61
2022-10-30T12:27:32.840Z,17.71
2022-10-30T12:30:09.633Z,17.89
2022-10-30T12:32:46.734Z,18.04
2022-10-30T12:35:32.194Z,18.13
2022-10-30T12:38:02.882Z,18.13
2022-10-30T12:40:32.289Z,17.50
2022-10-30T12:43:06.331Z,18.05
2022-10-30T12:45:40.113Z,18.00
2022-10-30T12:48:17.525Z,17.97
2022-10-30T12:50:53.390Z,17.92
2022-10-30T12:53:30.276Z,17.92
2022-10-30T12:56:01.952Z,17.96
2022-10-30T12:58:37.609Z,17.48
2022-10-30T13:01:17.794Z,17.92
2022-10-30T13:03:51.895Z,17.74
2022-10-30T13:06:24.674Z,18.00
2022-10-30T13:09:04.265Z,18.05
2022-10-30T13:11:40.908Z,18.00
2022-10-30T13:14:17.125Z,17.64
2022-10-30T13:16:44.830Z,18.03
2022-10-30T13:19:13.862Z,18.04
2022-10-30T13:21:47.503Z,17.82
2022-10-30T13:24:22.665Z,18.11
2022-10-30T13:26:56.663Z,18.06
2022-10-30T13:29:32.809Z,17.98
2022-10-30T13:32:20.583Z,18.03
2022-10-30T13:34:55.313Z,18.03
2022-10-30T13:37:31.402Z,17.73
2022-10-30T13:40:18.138Z,18.07
2022-10-30T13:42:56.792Z,18.07
2022-10-30T13:45:44.641Z,18.15
2022-10-30T13:48:19.811Z,18.14
2022-10-30T13:51:14.709Z,18.16
2022-10-30T13:53:47.095Z,18.07
2022-10-30T13:56:18.509Z,18.22
2022-10-30T13:58:51.982Z,18.24
2022-10-30T14:01:23.950Z,18.22
2022-10-30T14:04:00.714Z,18.33
2022-10-30T14:06:40.564Z,18.37
2022-10-30T14:09:16.271Z,18.35
2022-10-30T14:11:44.003Z,18.35
2022-10-30T14:14:29.947Z,18.39
2022-10-30T14:17:14.841Z,18.41
2022-10-30T14:20:25.123Z,18.42
2022-10-30T14:23:08.998Z,18.37
2022-10-30T14:25:37.029Z,18.31
2022-10-30T14:28:05.665Z,18.27
2022-10-30T14:30:36.710Z,18.11
2022-10-30T14:33:05.729Z,18.16
2022-10-30T14:35:39.424Z,18.10
2022-10-30T14:38:23.708Z,17.95
2022-10-30T14:41:19.439Z,17.94
2022-10-30T14:43:57.759Z,17.69
2022-10-30T14:46:33.409Z,17.82
2022-10-30T14:49:26.248Z,17.71
2022-10-30T14:52:05.734Z,17.61
2022-10-30T14:54:42.180Z,17.55
2022-10-30T14:57:22.125Z,17.42
2022-10-30T14:59:49.852Z,16.68
2022-10-30T15:02:31.482Z,17.14
2022-10-30T15:05:16.681Z,17.09
2022-10-30T15:07:52.163Z,16.96
2022-10-30T15:10:27.503Z,16.85
2022-10-30T15:13:16.812Z,16.74
2022-10-30T15:15:46.251Z,16.63
2022-10-30T15:18:19.449Z,16.54
2022-10-30T15:20:52.616Z,16.45
2022-10-30T15:23:25.377Z,16.39
2022-10-30T15:25:56.149Z,16.30
2022-10-30T15:28:29.023Z,16.08
2022-10-30T15:31:01.811Z,15.91
2022-10-30T15:33:31.478Z,16.06
2022-10-30T15:36:00.936Z,15.97
2022-10-30T15:38:28.690Z,15.91
2022-10-30T15:40:59.697Z,15.86
2022-10-30T15:43:30.646Z,15.81
2022-10-30T15:45:58.362Z,15.74
2022-10-30T15:48:29.278Z,15.67
2022-10-30T15:51:03.883Z,15.62
2022-10-30T15:53:38.180Z,15.52
2022-10-30T15:56:13.584Z,15.44
2022-10-30T15:58:51.602Z,15.44
2022-10-30T16:01:27.234Z,15.27
2022-10-30T16:03:55.661Z,15.20
2022-10-30T16:06:28.101Z,14.35
2022-10-30T16:08:56.021Z,14.37
2022-10-30T16:11:25.489Z,14.97
2022-10-30T16:13:54.312Z,14.92
2022-10-30T16:16:27.464Z,14.84
2022-10-30T16:19:00.651Z,14.73
2022-10-30T16:21:31.089Z,14.54
2022-10-30T16:24:01.517Z,14.50
2022-10-30T16:26:32.679Z,14.46
2022-10-30T16:29:02.117Z,14.09
2022-10-30T16:31:34.765Z,14.26
2022-10-30T16:34:04.356Z,14.18
2022-10-30T16:36:34.337Z,14.03
2022-10-30T16:39:02.614Z,13.99
2022-10-30T16:41:32.293Z,14.01
2022-10-30T16:44:15.750Z,13.80
2022-10-30T16:46:50.289Z,13.88
2022-10-30T16:49:20.393Z,13.93
2022-10-30T16:51:55.395Z,13.91
2022-10-30T16:54:26.099Z,13.80
2022-10-30T16:56:56.679Z,13.52
2022-10-30T16:59:30.297Z,13.59
2022-10-30T17:02:05.112Z,13.62
2022-10-30T17:04:34.845Z,13.52
2022-10-30T17:07:15.723Z,13.43
2022-10-30T17:09:44.044Z,12.74
2022-10-30T17:12:15.337Z,13.32
2022-10-30T17:14:48.813Z,13.34
2022-10-30T17:17:28.227Z,13.33
2022-10-30T17:20:02.664Z,13.19
2022-10-30T17:22:31.963Z,12.34
2022-10-30T17:25:01.369Z,13.06
2022-10-30T17:27:49.024Z,13.08
2022-10-30T17:30:42.132Z,12.94
2022-10-30T17:33:36.168Z,12.97
2022-10-30T17:36:05.246Z,13.00
2022-10-30T17:38:34.564Z,12.86
2022-10-30T17:41:03.053Z,12.77
2022-10-30T17:43:33.148Z,12.77
2022-10-30T17:46:00.837Z,12.68
2022-10-30T17:48:30.435Z,12.52
2022-10-30T17:50:58.297Z,12.11
2022-10-30T17:53:27.742Z,12.68
2022-10-30T17:56:01.680Z,12.63
2022-10-30T17:58:30.768Z,12.58
2022-10-30T18:00:58.844Z,11.98
2022-10-30T18:03:27.118Z,12.45
2022-10-30T18:05:55.220Z,12.41
2022-10-30T18:08:23.107Z,12.40
2022-10-30T18:10:51.033Z,12.41
2022-10-30T18:13:20.509Z,12.42
2022-10-30T18:15:53.487Z,12.20
2022-10-30T18:18:21.807Z,12.01
2022-10-30T18:20:49.458Z,12.17
2022-10-30T18:23:46.601Z,12.11
2022-10-30T18:26:08.435Z,12.10
2022-10-30T18:28:37.463Z,11.88
2022-10-30T18:31:05.251Z,12.06
2022-10-30T18:33:32.927Z,10.98
2022-10-30T18:36:00.638Z,11.86
2022-10-30T18:38:28.318Z,11.46
2022-10-30T18:41:07.616Z,10.70
2022-10-30T18:43:35.288Z,11.80
2022-10-30T18:46:04.352Z,11.75
2022-10-30T18:48:32.022Z,11.68
2022-10-30T18:50:59.679Z,11.73
2022-10-30T18:53:31.372Z,11.67
2022-10-30T18:56:02.686Z,11.74
2022-10-30T18:58:30.362Z,11.65
2022-10-30T19:01:11.462Z,11.66
2022-10-30T19:03:41.238Z,11.61
2022-10-30T19:06:12.188Z,11.52
2022-10-30T19:08:39.871Z,11.51
2022-10-30T19:11:08.208Z,11.55
2022-10-30T19:13:35.990Z,11.21
2022-10-30T19:16:03.807Z,11.44
2022-10-30T19:18:32.674Z,11.32
2022-10-30T19:21:07.307Z,11.28
2022-10-30T19:23:37.984Z,11.32
2022-10-30T19:26:05.754Z,11.36
2022-10-30T19:28:33.435Z,11.30
2022-10-30T19:31:01.120Z,11.37
2022-10-30T19:33:28.823Z,11.44
2022-10-30T19:35:57.216Z,11.35
2022-10-30T19:38:26.342Z,11.35
2022-10-30T19:40:54.628Z,11.35
2022-10-30T19:43:22.302Z,10.89
2022-10-30T19:45:52.883Z,11.15
2022-10-30T19:48:47.710Z,11.04
2022-10-30T19:51:12.093Z,11.04
2022-10-30T19:53:41.738Z,10.99
2022-10-30T19:56:11.380Z,10.87
2022-10-30T19:58:39.180Z,10.95
2022-10-30T20:01:07.124Z,10.86
2022-10-30T20:03:34.894Z,10.80
2022-10-30T20:06:02.668Z,10.81
2022-10-30T20:08:30.412Z,10.49
2022-10-30T20:11:00.871Z,10.70
2022-10-30T20:13:29.706Z,10.62
2022-10-30T20:16:00.631Z,10.62
2022-10-30T20:18:30.651Z,10.60
2022-10-30T20:21:00.006Z,10.59
2022-10-30T20:23:28.844Z,10.52
2022-10-30T20:26:01.619Z,10.52
2022-10-30T20:28:32.769Z,10.45
2022-10-30T20:31:00.568Z,10.38
2022-10-30T20:33:31.615Z,10.34
2022-10-30T20:35:59.324Z,10.41
2022-10-30T20:38:30.403Z,10.29
2022-10-30T20:40:59.025Z,10.34
2022-10-30T20:43:30.409Z,9.99
2022-10-30T20:45:58.531Z,10.27
2022-10-30T20:48:26.522Z,10.18
2022-10-30T20:50:55.007Z,10.45
2022-10-30T20:53:22.849Z,10.22
2022-10-30T20:55:50.679Z,10.33
2022-10-30T20:58:18.594Z,10.24
2022-10-30T21:00:47.996Z,10.20
2022-10-30T21:03:16.574Z,10.12
2022-10-30T21:05:46.384Z,10.15
2022-10-30T21:08:15.050Z,10.10
2022-10-30T21:10:42.991Z,9.31
2022-10-30T21:13:11.729Z,10.04
2022-10-30T21:15:40.514Z,9.35
2022-10-30T21:18:10.443Z,9.95
2022-10-30T21:20:38.665Z,9.95
2022-10-30T21:23:06.892Z,9.96
2022-10-30T21:25:34.883Z,10.00
2022-10-30T21:28:02.917Z,9.92
2022-10-30T21:30:30.652Z,9.90
2022-10-30T21:32:59.593Z,9.85
2022-10-30T21:35:29.112Z,9.82
2022-10-30T21:37:58.533Z,9.73
2022-10-30T21:40:30.108Z,9.59
2022-10-30T21:43:04.196Z,9.70
2022-10-30T21:45:32.995Z,9.67
2022-10-30T21:48:05.587Z,9.63
2022-10-30T21:50:40.452Z,9.54
2022-10-30T21:53:08.897Z,9.33
2022-10-30T21:55:38.782Z,9.49
2022-10-30T21:58:07.020Z,9.47
2022-10-30T22:00:34.662Z,9.44
2022-10-30T22:03:02.345Z,9.48
2022-10-30T22:05:30.032Z,9.44
2022-10-30T22:07:59.218Z,9.51
2022-10-30T22:10:27.156Z,9.41
2022-10-30T22:12:55.384Z,9.30
2022-10-30T22:15:23.076Z,9.42
2022-10-30T22:17:50.768Z,9.39
2022-10-30T22:20:18.466Z,9.42
2022-10-30T22:22:46.116Z,9.39
2022-10-30T22:25:15.211Z,9.24
2022-10-30T22:27:43.059Z,9.33
2022-10-30T22:30:12.021Z,9.34
2022-10-30T22:32:39.689Z,9.03
2022-10-30T22:35:07.787Z,9.37
2022-10-30T22:37:35.540Z,9.39
2022-10-30T22:40:03.296Z,9.38
2022-10-30T22:42:32.334Z,9.37
2022-10-30T22:45:00.034Z,9.33
2022-10-30T22:47:27.664Z,9.30
2022-10-30T22:49:55.450Z,9.28
2022-10-30T22:52:23.133Z,9.27
2022-10-30T22:54:50.896Z,9.20
2022-10-30T22:57:19.344Z,9.22
2022-10-30T22:59:48.405Z,9.14
2022-10-30T23:02:16.125Z,9.15
2022-10-30T23:04:43.768Z,9.05
2022-10-30T23:07:11.462Z,9.14
2022-10-30T23:09:39.152Z,9.16
2022-10-30T23:12:07.436Z,9.12
2022-10-30T23:14:35.739Z,9.12
2022-10-30T23:17:05.017Z,9.00
2022-10-30T23:19:32.746Z,9.08
2022-10-30T23:22:00.625Z,9.13
2022-10-30T23:24:28.544Z,9.09
2022-10-30T23:26:56.200Z,9.03
2022-10-30T23:29:23.923Z,9.01
2022-10-30T23:31:51.615Z,8.81
2022-10-30T23:34:20.749Z,8.90
2022-10-30T23:36:48.457Z,8.86
2022-10-30T23:39:18.196Z,8.92
2022-10-30T23:41:46.596Z,8.92
2022-10-30T23:44:16.079Z,8.88
2022-10-30T23:46:44.178Z,8.81
2022-10-30T23:49:12.196Z,8.82
2022-10-30T23:51:41.390Z,8.90
2022-10-30T23:54:09.255Z,8.91
2022-10-30T23:56:37.125Z,8.81
2022-10-30T23:59:04.793Z,8.88
